Time;durP1;ratioP1;P1;durP2;ratioP2;P2;SDS_P1;SDS_P2;PMS_P1;PMS_P2;Temp;Humidity;BMP_temperature;BMP_pressure;BME280_temperature;BME280_humidity;BME280_pressure;Samples;Min_cycle;Max_cycle;Signal;HPM_P1;HPM_P2
2021/01/27 00:00:18;;;;;;;1.33;0.80;;;21.00;29.30;;;;;;5051366;28;20468;-59
2021/01/27 00:02:44;;;;;;;1.60;0.90;;;21.00;29.30;;;;;;5051340;28;20393;-58
2021/01/27 00:05:13;;;;;;;2.10;0.80;;;21.00;29.40;;;;;;5050633;28;20401;-58
2021/01/27 00:07:40;;;;;;;1.75;0.77;;;21.00;29.30;;;;;;5049988;28;20409;-58
2021/01/27 00:10:06;;;;;;;1.65;0.90;;;21.00;29.30;;;;;;5051129;28;20409;-58
2021/01/27 00:12:33;;;;;;;2.53;0.90;;;21.00;29.40;;;;;;5050077;28;20405;-58
2021/01/27 00:14:58;;;;;;;2.78;1.00;;;21.00;29.60;;;;;;5046945;28;20477;-59
2021/01/27 00:17:24;;;;;;;6.55;1.10;;;21.00;30.00;;;;;;5049602;28;20513;-59
2021/01/27 00:19:50;;;;;;;5.10;1.30;;;21.10;31.80;;;;;;5049861;28;20394;-59
2021/01/27 00:22:15;;;;;;;4.55;1.00;;;21.10;31.40;;;;;;5049680;28;20393;-58
2021/01/27 00:24:41;;;;;;;3.73;1.00;;;21.10;31.00;;;;;;5049886;28;20388;-58
2021/01/27 00:27:06;;;;;;;2.85;1.00;;;21.20;31.00;;;;;;5049203;28;20412;-58
2021/01/27 00:29:32;;;;;;;4.90;1.30;;;21.20;31.20;;;;;;5048538;28;20393;-59
2021/01/27 00:31:58;;;;;;;4.20;1.10;;;21.20;31.40;;;;;;5049760;28;20397;-59
2021/01/27 00:34:23;;;;;;;2.90;1.03;;;21.10;31.00;;;;;;5049581;28;20429;-59
2021/01/27 00:36:50;;;;;;;3.28;1.20;;;21.10;30.90;;;;;;5049764;28;20785;-60
2021/01/27 00:39:17;;;;;;;4.82;1.20;;;21.10;30.80;;;;;;5049265;28;20381;-59
2021/01/27 00:41:44;;;;;;;5.60;1.10;;;21.00;30.90;;;;;;5050471;28;20750;-58
2021/01/27 00:44:11;;;;;;;4.43;1.20;;;21.00;31.10;;;;;;5050931;28;20397;-58
2021/01/27 00:46:36;;;;;;;4.07;1.25;;;21.10;31.20;;;;;;5050830;28;20405;-59
2021/01/27 00:49:02;;;;;;;5.17;1.10;;;21.10;31.10;;;;;;5052778;28;20397;-59
2021/01/27 00:51:28;;;;;;;5.07;1.10;;;21.00;31.00;;;;;;5054381;28;20888;-58
2021/01/27 00:53:54;;;;;;;4.80;1.10;;;21.00;30.80;;;;;;5054586;28;20398;-58
2021/01/27 00:56:21;;;;;;;4.97;1.00;;;21.00;30.70;;;;;;5054247;28;20475;-58
2021/01/27 00:58:48;;;;;;;3.53;0.98;;;21.00;30.30;;;;;;5054357;28;20435;-58
2021/01/27 01:01:14;;;;;;;2.10;0.73;;;21.00;30.10;;;;;;5053990;28;20758;-58
2021/01/27 01:03:39;;;;;;;2.20;0.80;;;21.00;30.00;;;;;;5054520;28;20425;-58
2021/01/27 01:06:05;;;;;;;2.58;0.77;;;21.00;30.00;;;;;;5054358;28;20424;-58
2021/01/27 01:08:31;;;;;;;2.37;0.70;;;21.00;29.80;;;;;;5054312;28;20401;-58
2021/01/27 01:10:59;;;;;;;2.55;0.80;;;21.00;29.80;;;;;;5054238;28;20380;-58
2021/01/27 01:13:26;;;;;;;2.58;0.70;;;21.00;29.70;;;;;;5053750;28;20390;-58
2021/01/27 01:15:53;;;;;;;1.80;0.70;;;21.00;29.60;;;;;;5054270;28;20381;-58
2021/01/27 01:18:19;;;;;;;2.20;0.80;;;21.00;29.60;;;;;;5054069;28;20484;-58
2021/01/27 01:20:47;;;;;;;1.90;0.80;;;21.00;29.50;;;;;;5054130;28;20385;-57
2021/01/27 01:23:14;;;;;;;1.85;0.70;;;21.00;29.40;;;;;;5053485;28;20432;-58
2021/01/27 01:25:41;;;;;;;1.67;0.80;;;21.00;29.40;;;;;;5053930;28;20796;-58
2021/01/27 01:28:07;;;;;;;1.25;0.60;;;21.00;29.30;;;;;;5053852;28;20418;-58
2021/01/27 01:30:35;;;;;;;1.50;0.60;;;21.00;29.30;;;;;;5053930;28;20422;-58
2021/01/27 01:33:04;;;;;;;2.00;0.73;;;21.00;29.30;;;;;;5053987;28;20909;-58
2021/01/27 01:35:30;;;;;;;1.75;0.70;;;21.00;29.30;;;;;;5053476;28;20490;-58
2021/01/27 01:37:55;;;;;;;2.13;0.60;;;21.00;29.20;;;;;;5053869;28;20424;-58
2021/01/27 01:40:43;;;;;;;1.60;0.70;;;20.90;29.20;;;;;;5053733;28;20389;-58
2021/01/27 01:43:14;;;;;;;1.30;0.55;;;21.00;29.20;;;;;;5053178;28;20382;-58
2021/01/27 01:45:50;;;;;;;1.95;0.60;;;21.00;29.20;;;;;;5053718;28;20404;-58
2021/01/27 01:48:21;;;;;;;1.70;0.65;;;20.90;29.10;;;;;;5053578;28;20425;-58
2021/01/27 01:50:54;;;;;;;1.55;0.60;;;20.90;29.10;;;;;;5053688;28;20409;-57
2021/01/27 01:53:22;;;;;;;1.42;0.63;;;20.90;29.00;;;;;;5053100;28;20410;-58
2021/01/27 01:55:49;;;;;;;1.88;0.75;;;20.90;29.00;;;;;;5053507;28;20386;-58
2021/01/27 01:58:14;;;;;;;1.00;0.50;;;20.90;29.00;;;;;;5053499;28;20849;-57
2021/01/27 02:00:41;;;;;;;0.90;0.50;;;20.90;29.00;;;;;;5052674;28;20397;-58
2021/01/27 02:03:11;;;;;;;1.60;0.60;;;20.90;28.90;;;;;;5053087;28;20394;-57
2021/01/27 02:05:38;;;;;;;1.35;0.60;;;20.90;28.90;;;;;;5053606;28;20427;-58
2021/01/27 02:08:04;;;;;;;1.03;0.60;;;20.90;28.90;;;;;;5053145;28;20442;-58
2021/01/27 02:10:30;;;;;;;1.20;0.60;;;20.90;28.90;;;;;;5053134;28;20393;-58
2021/01/27 02:13:20;;;;;;;0.83;0.50;;;20.80;28.80;;;;;;5053147;28;20389;-58
2021/01/27 02:15:57;;;;;;;0.95;0.60;;;20.80;28.80;;;;;;5053231;28;20394;-58
2021/01/27 02:18:37;;;;;;;1.05;0.50;;;20.90;28.90;;;;;;5053044;28;20377;-58
2021/01/27 02:21:21;;;;;;;1.23;0.68;;;20.80;28.80;;;;;;5051700;28;20400;-57
2021/01/27 02:24:05;;;;;;;0.90;0.50;;;20.80;28.80;;;;;;5051676;28;20750;-58
2021/01/27 02:27:02;;;;;;;0.87;0.50;;;20.80;28.80;;;;;;5051651;28;20821;-58
2021/01/27 02:29:38;;;;;;;1.20;0.50;;;20.80;28.80;;;;;;5052404;28;20428;-58
2021/01/27 02:32:41;;;;;;;1.07;0.50;;;20.80;28.80;;;;;;5052833;28;20400;-58
2021/01/27 02:35:18;;;;;;;1.02;0.50;;;20.80;28.80;;;;;;5052353;28;20889;-58
2021/01/27 02:37:55;;;;;;;0.88;0.40;;;20.80;28.80;;;;;;5052651;28;20393;-58
2021/01/27 02:40:26;;;;;;;0.80;0.50;;;20.80;28.70;;;;;;5052648;28;20385;-58
2021/01/27 02:43:09;;;;;;;1.02;0.45;;;20.80;28.70;;;;;;5052609;28;20376;-58
2021/01/27 02:45:37;;;;;;;0.93;0.47;;;20.80;28.70;;;;;;5052376;28;20404;-57
2021/01/27 02:48:14;;;;;;;1.10;0.60;;;20.70;28.70;;;;;;5052373;28;20417;-58
2021/01/27 02:50:44;;;;;;;0.75;0.45;;;20.70;28.70;;;;;;5052440;28;20382;-58
2021/01/27 02:53:22;;;;;;;1.15;0.63;;;20.70;28.60;;;;;;5052059;28;20909;-58
2021/01/27 02:56:05;;;;;;;1.00;0.52;;;20.70;28.60;;;;;;5052475;28;20422;-58
2021/01/27 02:58:36;;;;;;;0.70;0.50;;;20.70;28.60;;;;;;5052389;28;20389;-58
2021/01/27 03:01:10;;;;;;;1.35;0.60;;;20.70;28.60;;;;;;5052279;28;20389;-58
2021/01/27 03:03:45;;;;;;;1.23;0.55;;;20.70;28.60;;;;;;5052019;28;20393;-58
2021/01/27 03:06:15;;;;;;;0.80;0.40;;;20.70;28.60;;;;;;5052302;28;20382;-58
2021/01/27 03:09:00;;;;;;;0.88;0.50;;;20.70;28.60;;;;;;5052132;28;20483;-58
2021/01/27 03:11:32;;;;;;;0.98;0.60;;;20.70;28.60;;;;;;5050291;28;20424;-58
2021/01/27 03:14:00;;;;;;;0.95;0.50;;;20.70;28.60;;;;;;5067211;28;20396;-58
2021/01/27 03:16:49;;;;;;;0.90;0.50;;;20.70;28.60;;;;;;5052049;28;20483;-58
2021/01/27 03:19:22;;;;;;;0.90;0.50;;;20.70;28.60;;;;;;5051388;28;20402;-58
2021/01/27 03:21:54;;;;;;;0.80;0.45;;;20.60;28.50;;;;;;5051973;28;20750;-58
2021/01/27 03:24:21;;;;;;;0.60;0.40;;;20.60;28.50;;;;;;5051721;28;20479;-57
2021/01/27 03:26:52;;;;;;;0.70;0.47;;;20.70;28.50;;;;;;5051767;28;20453;-58
2021/01/27 03:29:23;;;;;;;0.90;0.50;;;20.60;28.50;;;;;;5051351;28;20388;-58
2021/01/27 03:31:53;;;;;;;1.13;0.60;;;20.60;28.40;;;;;;5051769;28;20397;-58
2021/01/27 03:34:25;;;;;;;0.80;0.50;;;20.60;28.40;;;;;;5066902;28;20388;-58
2021/01/27 03:37:00;;;;;;;1.20;0.50;;;20.60;28.50;;;;;;5051671;28;20404;-58
2021/01/27 03:39:30;;;;;;;0.60;0.38;;;20.60;28.40;;;;;;5051129;28;20382;-58
2021/01/27 03:42:02;;;;;;;0.85;0.50;;;20.60;28.40;;;;;;5051437;28;20908;-58
2021/01/27 03:44:33;;;;;;;0.75;0.35;;;20.60;28.40;;;;;;5051537;28;20463;-58
2021/01/27 03:47:27;;;;;;;0.80;0.43;;;20.60;28.40;;;;;;5051439;28;20429;-58
2021/01/27 03:50:08;;;;;;;0.70;0.50;;;20.60;28.40;;;;;;5047487;28;20480;-58
2021/01/27 03:52:41;;;;;;;0.77;0.40;;;20.60;28.40;;;;;;5051371;28;20477;-58
2021/01/27 03:55:38;;;;;;;0.80;0.40;;;20.60;28.40;;;;;;5051526;28;20444;-57
2021/01/27 03:58:24;;;;;;;1.00;0.50;;;20.60;28.50;;;;;;5051362;28;20385;-58
2021/01/27 04:00:50;;;;;;;0.60;0.40;;;20.60;28.50;;;;;;5051405;28;20390;-58
2021/01/27 04:03:21;;;;;;;0.70;0.40;;;20.60;28.40;;;;;;5050865;28;20727;-58
2021/01/27 04:05:48;;;;;;;0.90;0.50;;;20.60;28.40;;;;;;5051582;28;20377;-59
2021/01/27 04:08:14;;;;;;;0.73;0.40;;;20.60;28.60;;;;;;5051130;28;20485;-58
2021/01/27 04:10:40;;;;;;;1.20;0.40;;;20.60;28.50;;;;;;5051299;28;20869;-58
2021/01/27 04:13:06;;;;;;;1.00;0.50;;;20.60;28.80;;;;;;5051129;28;20399;-58
2021/01/27 04:15:32;;;;;;;1.50;0.50;;;20.60;28.90;;;;;;5050833;28;20385;-58
2021/01/27 04:17:58;;;;;;;1.10;0.50;;;20.70;29.40;;;;;;5051152;28;20417;-58
2021/01/27 04:20:26;;;;;;;1.30;0.60;;;20.80;29.60;;;;;;5051027;28;20396;-58
2021/01/27 04:22:53;;;;;;;1.08;0.50;;;20.80;29.10;;;;;;5051257;28;20393;-59
2021/01/27 04:25:19;;;;;;;0.68;0.40;;;20.80;29.20;;;;;;5054413;28;20397;-58
2021/01/27 04:27:45;;;;;;;1.50;0.50;;;20.80;29.40;;;;;;5055031;28;20413;-59
2021/01/27 04:30:14;;;;;;;2.03;0.60;;;20.80;29.60;;;;;;5054367;28;20377;-59
2021/01/27 04:32:40;;;;;;;3.67;0.50;;;20.80;30.10;;;;;;5053805;28;20496;-58
2021/01/27 04:35:07;;;;;;;2.60;0.57;;;20.90;30.70;;;;;;5054345;28;20492;-58
2021/01/27 04:37:33;;;;;;;1.80;0.50;;;20.90;30.80;;;;;;5054629;28;20393;-58
2021/01/27 04:39:59;;;;;;;1.83;0.40;;;20.90;30.60;;;;;;5054857;28;20466;-58
2021/01/27 04:42:28;;;;;;;3.10;0.50;;;20.90;31.10;;;;;;5054661;28;20785;-58
2021/01/27 04:44:58;;;;;;;1.47;0.47;;;21.00;31.10;;;;;;5054801;28;20481;-58
2021/01/27 04:47:32;;;;;;;1.90;0.50;;;21.00;31.20;;;;;;5054227;28;20895;-59
2021/01/27 04:50:10;;;;;;;4.10;0.50;;;21.00;31.20;;;;;;5054490;28;20438;-59
2021/01/27 04:53:01;;;;;;;1.55;0.45;;;21.10;31.30;;;;;;5053182;28;20393;-59
2021/01/27 04:55:56;;;;;;;2.07;0.40;;;21.00;31.20;;;;;;5054128;28;20812;-59
2021/01/27 04:58:36;;;;;;;2.10;0.60;;;21.10;31.90;;;;;;5054414;28;20462;-59
2021/01/27 05:01:14;;;;;;;1.50;0.40;;;21.10;31.80;;;;;;5054505;28;20404;-58
2021/01/27 05:04:04;;;;;;;3.40;0.50;;;21.10;32.10;;;;;;5052892;28;21140;-59
2021/01/27 05:06:39;;;;;;;2.80;0.52;;;21.10;31.60;;;;;;5054184;28;20409;-59
2021/01/27 05:09:28;;;;;;;4.18;0.40;;;21.00;31.60;;;;;;5053659;28;20881;-59
2021/01/27 05:11:55;;;;;;;2.70;0.70;;;21.00;31.50;;;;;;5053937;28;20401;-58
2021/01/27 05:14:21;;;;;;;2.63;0.40;;;20.90;31.40;;;;;;5054460;28;20389;-59
2021/01/27 05:16:50;;;;;;;3.33;0.52;;;20.90;31.20;;;;;;5054094;28;20796;-59
2021/01/27 05:19:16;;;;;;;4.47;0.55;;;20.80;30.70;;;;;;5053081;28;20399;-59
2021/01/27 05:21:56;;;;;;;5.38;0.70;;;20.90;30.40;;;;;;5053882;28;20386;-59
2021/01/27 05:24:22;;;;;;;5.40;0.70;;;20.80;30.50;;;;;;5054430;28;20412;-59
2021/01/27 05:26:58;;;;;;;4.75;0.70;;;20.80;30.60;;;;;;5053990;28;20401;-59
2021/01/27 05:29:40;;;;;;;3.17;0.70;;;20.80;30.90;;;;;;5053646;28;20390;-59
2021/01/27 05:32:09;;;;;;;4.00;0.80;;;20.70;30.20;;;;;;5054273;28;20392;-59
2021/01/27 05:34:51;;;;;;;2.95;0.60;;;20.70;30.00;;;;;;5052350;28;20912;-59
2021/01/27 05:37:34;;;;;;;2.10;0.70;;;20.70;29.80;;;;;;5053703;28;20385;-59
2021/01/27 05:40:20;;;;;;;2.95;0.60;;;20.70;29.60;;;;;;5052525;28;20471;-59
2021/01/27 05:42:46;;;;;;;2.40;0.85;;;20.70;29.40;;;;;;5054199;28;20764;-59
2021/01/27 05:45:33;;;;;;;2.00;0.70;;;20.80;29.80;;;;;;5053621;28;20400;-59
2021/01/27 05:48:35;;;;;;;1.53;0.70;;;20.70;29.70;;;;;;5053614;28;20425;-59
2021/01/27 05:51:06;;;;;;;2.75;0.80;;;20.80;30.70;;;;;;5052018;28;20450;-59
2021/01/27 05:53:33;;;;;;;2.95;0.80;;;20.80;31.20;;;;;;5052927;28;20397;-59
2021/01/27 05:56:00;;;;;;;3.33;0.80;;;20.80;31.20;;;;;;5053533;28;20396;-59
2021/01/27 05:58:29;;;;;;;8.75;1.15;;;20.80;31.00;;;;;;5053572;28;20383;-59
2021/01/27 06:01:14;;;;;;;2.25;0.80;;;20.80;30.70;;;;;;5053482;28;20391;-59
2021/01/27 06:03:53;;;;;;;4.90;0.80;;;20.80;30.70;;;;;;5052952;28;20920;-59
2021/01/27 06:06:18;;;;;;;2.78;0.75;;;20.80;30.70;;;;;;5053287;28;20390;-59
2021/01/27 06:08:56;;;;;;;3.30;0.80;;;20.80;30.60;;;;;;5053296;28;20420;-59
2021/01/27 06:11:22;;;;;;;3.20;0.82;;;20.70;30.30;;;;;;5052800;28;20899;-60
2021/01/27 06:13:49;;;;;;;2.67;0.80;;;20.70;30.10;;;;;;5053396;28;20441;-59
2021/01/27 06:16:30;;;;;;;3.23;0.70;;;20.70;30.00;;;;;;5053270;28;20381;-59
2021/01/27 06:19:09;;;;;;;1.50;0.80;;;20.60;30.30;;;;;;5053052;28;20886;-59
2021/01/27 06:22:12;;;;;;;2.53;0.77;;;20.60;29.80;;;;;;5052249;28;20382;-59
2021/01/27 06:24:59;;;;;;;2.92;0.80;;;20.60;29.70;;;;;;5052994;28;20390;-59
2021/01/27 06:27:37;;;;;;;2.65;0.80;;;20.60;29.70;;;;;;5052377;28;20881;-59
2021/01/27 06:30:20;;;;;;;2.88;0.70;;;20.60;29.70;;;;;;5052802;28;20428;-60
2021/01/27 06:33:01;;;;;;;2.22;0.80;;;20.60;29.60;;;;;;5050842;28;20394;-59
2021/01/27 06:35:39;;;;;;;1.80;0.80;;;20.60;29.60;;;;;;5050220;28;20960;-59
2021/01/27 06:38:41;;;;;;;2.17;0.70;;;20.60;29.70;;;;;;5052187;28;20854;-59
2021/01/27 06:41:28;;;;;;;2.00;0.80;;;20.50;29.50;;;;;;5051468;28;20397;-59
2021/01/27 06:44:18;;;;;;;1.60;0.70;;;20.50;29.50;;;;;;5048698;28;20408;-60
2021/01/27 06:46:59;;;;;;;1.98;0.68;;;20.50;29.50;;;;;;5052020;28;20499;-59
2021/01/27 06:50:08;;;;;;;2.10;0.70;;;20.50;29.50;;;;;;5051762;28;20786;-59
2021/01/27 06:53:01;;;;;;;2.28;1.00;;;20.50;29.40;;;;;;5051042;28;20397;-59
2021/01/27 06:55:52;;;;;;;1.90;1.00;;;20.50;29.40;;;;;;5051986;28;20429;-59
2021/01/27 06:58:47;;;;;;;1.45;0.60;;;20.50;29.50;;;;;;5052022;28;20870;-59
2021/01/27 07:01:21;;;;;;;1.83;0.75;;;20.50;29.40;;;;;;5052243;28;20377;-59
2021/01/27 07:04:05;;;;;;;2.17;0.90;;;20.50;29.30;;;;;;5049715;28;20390;-62
2021/01/27 07:06:52;;;;;;;1.42;0.73;;;20.50;29.30;;;;;;5052182;28;20450;-59
2021/01/27 07:09:27;;;;;;;2.03;0.70;;;20.50;29.40;;;;;;5050603;28;20770;-60
2021/01/27 07:12:08;;;;;;;1.70;0.80;;;20.50;29.70;;;;;;5045424;28;20878;-60
2021/01/27 07:15:00;;;;;;;1.67;0.80;;;20.50;29.70;;;;;;5038597;28;20486;-61
2021/01/27 07:17:56;;;;;;;2.10;0.70;;;20.50;29.70;;;;;;5030388;28;20399;-74
2021/01/27 07:20:34;;;;;;;1.50;0.90;;;20.50;29.70;;;;;;5030730;28;20400;-60
2021/01/27 07:23:24;;;;;;;2.38;0.80;;;20.50;29.70;;;;;;5031654;28;20401;-64
2021/01/27 07:25:58;;;;;;;1.70;0.70;;;20.50;29.70;;;;;;5030549;28;20407;-68
2021/01/27 07:28:42;;;;;;;1.95;0.93;;;20.40;29.50;;;;;;5033156;28;20432;-59
2021/01/27 07:31:29;;;;;;;2.60;0.90;;;20.50;29.50;;;;;;5050086;28;20390;-59
2021/01/27 07:34:19;;;;;;;1.55;0.80;;;20.50;29.40;;;;;;5051219;28;20416;-59
2021/01/27 07:36:48;;;;;;;2.15;0.98;;;20.50;29.40;;;;;;5051512;28;20420;-59
2021/01/27 07:39:52;;;;;;;2.78;0.98;;;20.50;29.40;;;;;;5049607;28;20484;-59
2021/01/27 07:42:33;;;;;;;1.83;0.95;;;20.50;29.40;;;;;;5049597;28;20390;-59
2021/01/27 07:45:07;;;;;;;1.98;1.20;;;20.40;29.40;;;;;;5049803;28;20413;-59
2021/01/27 07:47:56;;;;;;;2.58;1.58;;;20.40;29.30;;;;;;5050891;28;20831;-59
2021/01/27 07:50:23;;;;;;;2.50;1.48;;;20.40;29.30;;;;;;5050133;28;20386;-59
2021/01/27 07:53:36;;;;;;;3.38;1.63;;;20.40;29.20;;;;;;5050185;28;20434;-59
2021/01/27 07:56:01;;;;;;;3.63;1.80;;;20.40;29.20;;;;;;4993065;28;20389;-59
2021/01/27 07:58:34;;;;;;;3.20;2.03;;;20.40;29.20;;;;;;5008268;28;20484;-59
2021/01/27 08:01:13;;;;;;;3.08;2.20;;;20.50;29.20;;;;;;5022045;28;20945;-63
2021/01/27 08:04:07;;;;;;;3.38;2.40;;;20.50;29.10;;;;;;5046216;28;20485;-60
2021/01/27 08:06:44;;;;;;;4.05;2.65;;;20.50;29.10;;;;;;5029901;28;20937;-59
2021/01/27 08:09:12;;;;;;;3.80;3.08;;;20.60;29.00;;;;;;5030993;28;20445;-59
2021/01/27 08:11:43;;;;;;;3.65;2.58;;;20.60;28.90;;;;;;5029629;28;20383;-60
2021/01/27 08:14:14;;;;;;;3.43;2.83;;;20.60;28.90;;;;;;5038538;28;20396;-59
2021/01/27 08:16:41;;;;;;;4.07;2.90;;;20.60;28.80;;;;;;5049838;28;20753;-59
2021/01/27 08:19:13;;;;;;;4.10;2.60;;;20.60;28.90;;;;;;5049675;28;20424;-59
2021/01/27 08:21:45;;;;;;;4.00;3.17;;;20.60;28.90;;;;;;5049410;28;20479;-59
2021/01/27 08:24:38;;;;;;;4.15;2.80;;;20.60;28.80;;;;;;5050264;28;20404;-59
2021/01/27 08:27:10;;;;;;;4.53;2.90;;;20.60;28.80;;;;;;5048770;28;20401;-59
2021/01/27 08:29:38;;;;;;;3.80;2.70;;;20.70;28.90;;;;;;5046912;28;20397;-59
2021/01/27 08:32:24;;;;;;;3.80;2.70;;;20.70;28.80;;;;;;5049787;28;20460;-60
2021/01/27 08:34:52;;;;;;;3.50;2.70;;;20.70;28.80;;;;;;5047927;28;20417;-60
2021/01/27 08:37:41;;;;;;;3.50;2.90;;;20.70;28.80;;;;;;5049990;28;20439;-74
2021/01/27 08:40:14;;;;;;;3.65;2.60;;;20.70;28.80;;;;;;5050211;28;20858;-60
2021/01/27 08:42:45;;;;;;;4.20;2.70;;;20.70;28.80;;;;;;5048633;28;20492;-60
2021/01/27 08:45:22;;;;;;;3.65;2.80;;;20.80;28.80;;;;;;5050798;28;20393;-59
2021/01/27 08:47:56;;;;;;;3.70;2.53;;;20.80;28.80;;;;;;5050531;28;20445;-60
2021/01/27 08:50:43;;;;;;;4.15;2.67;;;20.80;28.70;;;;;;5050834;28;20382;-59
2021/01/27 08:53:26;;;;;;;3.55;2.60;;;20.90;28.70;;;;;;5050743;28;20897;-60
2021/01/27 08:56:00;;;;;;;3.72;2.33;;;20.90;28.60;;;;;;5050316;28;20435;-60
2021/01/27 08:58:25;;;;;;;3.35;2.42;;;21.00;28.60;;;;;;5050530;28;20484;-74
2021/01/27 09:00:54;;;;;;;3.27;2.57;;;21.00;28.60;;;;;;5051137;28;20524;-75
2021/01/27 09:03:42;;;;;;;3.27;2.60;;;21.10;28.60;;;;;;5050796;28;20889;-75
2021/01/27 09:06:28;;;;;;;2.90;2.25;;;21.10;28.50;;;;;;5050730;28;20390;-74
2021/01/27 09:09:21;;;;;;;2.70;2.03;;;21.10;28.40;;;;;;5051052;28;20394;-74
2021/01/27 09:11:47;;;;;;;3.17;2.20;;;21.10;28.50;;;;;;5054113;28;20378;-75
2021/01/27 09:14:15;;;;;;;3.15;2.20;;;21.20;28.50;;;;;;5054175;28;20402;-75
2021/01/27 09:16:43;;;;;;;2.90;2.28;;;21.20;28.90;;;;;;5053125;28;20394;-63
2021/01/27 09:19:21;;;;;;;3.10;2.10;;;21.20;28.40;;;;;;5054243;28;20402;-61
2021/01/27 09:22:21;;;;;;;3.08;2.22;;;21.20;28.30;;;;;;5069329;28;20389;-60
2021/01/27 09:24:49;;;;;;;2.58;2.00;;;21.30;28.20;;;;;;5053943;28;20393;-60
2021/01/27 09:27:21;;;;;;;2.80;2.00;;;21.30;28.30;;;;;;5052682;28;20496;-61
2021/01/27 09:30:08;;;;;;;2.92;1.98;;;21.30;28.30;;;;;;5052323;28;20781;-60
2021/01/27 09:32:35;;;;;;;2.55;1.85;;;21.30;28.20;;;;;;5053968;28;20389;-74
2021/01/27 09:35:23;;;;;;;2.28;1.80;;;21.40;28.20;;;;;;5052454;28;20421;-60
2021/01/27 09:37:58;;;;;;;2.45;1.85;;;21.40;28.20;;;;;;5053389;28;20393;-72
2021/01/27 09:40:38;;;;;;;2.10;1.63;;;21.50;28.20;;;;;;5053959;28;20382;-60
2021/01/27 09:43:09;;;;;;;3.05;1.90;;;21.50;28.20;;;;;;5053707;28;20476;-61
2021/01/27 09:45:36;;;;;;;2.45;1.90;;;21.40;28.40;;;;;;5052038;28;20385;-60
2021/01/27 09:48:04;;;;;;;3.37;1.70;;;21.50;28.20;;;;;;5068984;28;20822;-64
2021/01/27 09:50:32;;;;;;;3.25;2.00;;;21.60;28.60;;;;;;5053765;28;20421;-65
2021/01/27 09:53:01;;;;;;;2.47;1.70;;;21.60;28.80;;;;;;5053543;28;20455;-61
2021/01/27 09:55:28;;;;;;;2.77;1.60;;;21.70;29.20;;;;;;5046215;28;20401;-63
2021/01/27 09:57:55;;;;;;;3.33;1.60;;;21.70;29.40;;;;;;5032105;28;20899;-61
2021/01/27 10:00:28;;;;;;;2.75;1.80;;;21.60;29.40;;;;;;5033748;28;20779;-61
2021/01/27 10:02:54;;;;;;;2.75;1.70;;;21.50;29.30;;;;;;5032099;28;20399;-61
2021/01/27 10:05:40;;;;;;;2.78;1.50;;;21.60;29.10;;;;;;5048804;28;20395;-61
2021/01/27 10:08:34;;;;;;;2.53;1.60;;;21.60;29.00;;;;;;5031995;28;20419;-68
2021/01/27 10:11:28;;;;;;;2.30;1.80;;;21.60;28.80;;;;;;5031924;28;20402;-61
2021/01/27 10:14:10;;;;;;;2.25;1.40;;;21.60;28.80;;;;;;5033111;28;20875;-64
2021/01/27 10:16:57;;;;;;;2.40;1.60;;;21.70;28.80;;;;;;5039382;28;20393;-63
2021/01/27 10:19:38;;;;;;;2.08;1.40;;;21.70;28.70;;;;;;5052019;28;20386;-76
2021/01/27 10:22:06;;;;;;;2.13;1.38;;;21.70;28.60;;;;;;5051168;28;20416;-60
2021/01/27 10:24:44;;;;;;;2.60;1.50;;;21.70;28.50;;;;;;5052905;28;20390;-76
2021/01/27 10:27:18;;;;;;;1.80;1.40;;;21.70;29.00;;;;;;5052303;28;20500;-76
2021/01/27 10:29:43;;;;;;;1.80;1.25;;;21.70;28.50;;;;;;5052410;28;20389;-66
2021/01/27 10:32:32;;;;;;;2.53;1.45;;;21.70;28.60;;;;;;5052908;28;20464;-75
2021/01/27 10:34:59;;;;;;;2.20;1.33;;;21.70;28.90;;;;;;5052946;28;20410;-76
2021/01/27 10:37:31;;;;;;;2.05;1.40;;;21.70;28.90;;;;;;5053080;28;20382;-72
2021/01/27 10:40:13;;;;;;;2.30;1.48;;;21.70;29.00;;;;;;5050884;28;20896;-62
2021/01/27 10:42:59;;;;;;;1.67;1.30;;;21.60;28.90;;;;;;5043840;28;20399;-62
2021/01/27 10:45:39;;;;;;;3.40;1.40;;;21.60;28.70;;;;;;5032743;28;20508;-61
2021/01/27 10:48:10;;;;;;;1.80;1.25;;;21.60;28.40;;;;;;5032586;28;20422;-61
2021/01/27 10:50:51;;;;;;;2.30;1.20;;;21.70;28.20;;;;;;5032678;28;20398;-74
2021/01/27 10:53:19;;;;;;;2.00;1.25;;;21.70;28.10;;;;;;5031347;28;20970;-62
2021/01/27 10:55:55;;;;;;;1.70;1.20;;;21.60;28.20;;;;;;5032110;28;20418;-66
2021/01/27 10:58:22;;;;;;;2.00;1.20;;;21.60;28.00;;;;;;5031290;28;20395;-60
2021/01/27 11:00:48;;;;;;;1.80;1.10;;;21.60;28.10;;;;;;5032563;28;20398;-62
2021/01/27 11:03:14;;;;;;;1.55;1.00;;;21.60;28.00;;;;;;5030923;28;20752;-61
2021/01/27 11:05:40;;;;;;;1.80;1.23;;;21.60;28.00;;;;;;5030731;28;20482;-61
2021/01/27 11:08:27;;;;;;;1.73;1.10;;;21.60;28.00;;;;;;5032270;28;20423;-61
2021/01/27 11:10:54;;;;;;;1.92;1.27;;;21.60;27.90;;;;;;5032521;28;20406;-76
2021/01/27 11:13:21;;;;;;;1.80;1.15;;;21.50;27.90;;;;;;5032627;28;20955;-76
2021/01/27 11:15:47;;;;;;;2.00;1.30;;;21.50;27.80;;;;;;5032015;28;20422;-62
2021/01/27 11:18:14;;;;;;;1.70;1.10;;;21.50;27.90;;;;;;5049270;28;20893;-74
2021/01/27 11:20:40;;;;;;;1.60;1.10;;;21.50;27.80;;;;;;5051277;28;20940;-72
2021/01/27 11:23:06;;;;;;;2.38;1.10;;;21.50;27.80;;;;;;5052015;28;20396;-75
2021/01/27 11:25:32;;;;;;;1.73;1.10;;;21.50;27.80;;;;;;5051893;28;20385;-75
2021/01/27 11:27:57;;;;;;;1.80;1.15;;;21.50;27.80;;;;;;5051566;28;20409;-65
2021/01/27 11:30:28;;;;;;;1.55;1.00;;;21.50;27.80;;;;;;5052097;28;20913;-76
2021/01/27 11:32:54;;;;;;;1.95;1.00;;;21.50;27.80;;;;;;5050767;28;20381;-63
2021/01/27 11:35:21;;;;;;;2.05;1.10;;;21.50;27.70;;;;;;5051846;28;20467;-65
2021/01/27 11:37:48;;;;;;;2.13;1.05;;;21.50;27.80;;;;;;5051132;28;20453;-69
2021/01/27 11:40:16;;;;;;;1.70;1.20;;;21.40;27.70;;;;;;5050442;28;20744;-61
2021/01/27 11:42:41;;;;;;;2.10;1.20;;;21.50;27.70;;;;;;5051360;28;20473;-64
2021/01/27 11:45:08;;;;;;;1.70;1.10;;;21.50;27.80;;;;;;5051024;28;20465;-61
2021/01/27 11:47:35;;;;;;;1.45;0.95;;;21.50;27.70;;;;;;5051330;28;20452;-73
2021/01/27 11:50:00;;;;;;;1.60;1.00;;;21.50;27.60;;;;;;5051845;28;20401;-76
2021/01/27 11:52:26;;;;;;;1.60;0.90;;;21.50;27.70;;;;;;5052012;28;20393;-75
2021/01/27 11:54:52;;;;;;;1.50;1.00;;;21.50;27.70;;;;;;5051625;28;20386;-75
2021/01/27 11:57:18;;;;;;;1.30;0.93;;;21.50;27.60;;;;;;5051677;28;20901;-76
2021/01/27 11:59:44;;;;;;;1.50;1.10;;;21.50;27.60;;;;;;5051305;28;20471;-74
2021/01/27 12:02:09;;;;;;;1.43;1.10;;;21.50;27.60;;;;;;5051700;28;20429;-72
2021/01/27 12:04:35;;;;;;;1.65;1.05;;;21.50;27.50;;;;;;5051567;28;20401;-73
2021/01/27 12:07:02;;;;;;;1.52;1.10;;;21.50;27.60;;;;;;5067192;28;20414;-73
2021/01/27 12:09:31;;;;;;;1.25;0.98;;;21.50;27.60;;;;;;5051625;28;20480;-74
2021/01/27 12:11:57;;;;;;;1.42;1.00;;;21.50;27.60;;;;;;5067092;28;20747;-74
2021/01/27 12:14:24;;;;;;;1.50;1.10;;;21.50;27.60;;;;;;5067206;28;20878;-73
2021/01/27 12:16:50;;;;;;;2.00;1.00;;;21.60;27.50;;;;;;5051260;28;20385;-73
2021/01/27 12:19:16;;;;;;;1.42;1.02;;;21.50;27.50;;;;;;5050312;28;20441;-75
2021/01/27 12:21:42;;;;;;;1.70;1.00;;;21.60;27.60;;;;;;5049918;28;20392;-76
2021/01/27 12:24:08;;;;;;;1.40;0.90;;;21.60;27.50;;;;;;5051380;28;21050;-75
2021/01/27 12:26:34;;;;;;;1.80;1.20;;;21.60;27.60;;;;;;5051395;28;20393;-75
2021/01/27 12:29:00;;;;;;;1.48;1.00;;;21.60;28.00;;;;;;5051344;28;20804;-72
2021/01/27 12:31:26;;;;;;;1.73;1.07;;;21.60;27.60;;;;;;5051454;28;20393;-74
2021/01/27 12:33:52;;;;;;;1.60;1.10;;;21.60;27.50;;;;;;5050901;28;20476;-73
2021/01/27 12:36:18;;;;;;;1.63;0.93;;;21.50;27.50;;;;;;5051102;28;20928;-75
2021/01/27 12:38:44;;;;;;;1.40;1.00;;;21.60;27.60;;;;;;5051620;28;20425;-75
2021/01/27 12:41:10;;;;;;;1.52;1.00;;;21.50;27.50;;;;;;5051396;28;20501;-75
2021/01/27 12:43:36;;;;;;;1.30;0.90;;;21.50;27.50;;;;;;5051094;28;20874;-73
2021/01/27 12:46:02;;;;;;;1.65;1.00;;;21.50;27.50;;;;;;5054982;28;20435;-75
2021/01/27 12:48:30;;;;;;;1.20;0.88;;;21.60;27.50;;;;;;5055273;28;20444;-75
2021/01/27 12:50:56;;;;;;;1.40;0.80;;;21.60;27.50;;;;;;5055349;28;20385;-75
2021/01/27 12:53:22;;;;;;;1.23;0.80;;;21.60;27.50;;;;;;5055018;28;20404;-76
2021/01/27 12:55:47;;;;;;;1.52;0.90;;;21.60;27.50;;;;;;5070224;28;20773;-75
2021/01/27 12:58:13;;;;;;;1.77;1.00;;;21.50;27.50;;;;;;5055083;28;20384;-76
2021/01/27 13:00:39;;;;;;;1.60;1.13;;;21.50;27.50;;;;;;5070296;28;20397;-69
2021/01/27 13:03:04;;;;;;;1.33;0.93;;;21.50;27.50;;;;;;5054935;28;20476;-76
2021/01/27 13:05:30;;;;;;;1.20;0.90;;;21.50;27.50;;;;;;5055236;28;20381;-74
2021/01/27 13:07:56;;;;;;;1.63;0.97;;;21.50;27.50;;;;;;5054609;28;20417;-75
2021/01/27 13:10:22;;;;;;;2.67;1.08;;;21.50;27.50;;;;;;5054803;28;20742;-74
2021/01/27 13:12:50;;;;;;;1.55;1.10;;;21.50;27.90;;;;;;5054604;28;20390;-67
2021/01/27 13:15:19;;;;;;;2.10;1.10;;;21.50;27.80;;;;;;5054493;28;20378;-74
2021/01/27 13:17:45;;;;;;;2.75;1.20;;;21.50;27.90;;;;;;5053981;28;20388;-62
2021/01/27 13:20:12;;;;;;;6.10;1.00;;;21.50;27.90;;;;;;5053865;28;20754;-61